createdAt,value
2019-01-05T00:00:21.490Z,1008.05
2019-01-05T00:01:21.470Z,1008.02
2019-01-05T00:02:21.446Z,1008.04
2019-01-05T00:03:21.434Z,1008.04
2019-01-05T00:04:21.446Z,1008.05
2019-01-05T00:05:21.411Z,1008.04
2019-01-05T00:06:21.403Z,1008.00
2019-01-05T00:07:21.425Z,1007.96
2019-01-05T00:08:21.378Z,1008.01
2019-01-05T00:09:21.372Z,1008.00
2019-01-05T00:10:21.376Z,1007.91
2019-01-05T00:11:21.370Z,1007.91
2019-01-05T00:12:21.337Z,1007.91
2019-01-05T00:13:21.357Z,1007.94
2019-01-05T00:14:21.338Z,1007.91
2019-01-05T00:15:21.300Z,1007.87
2019-01-05T00:16:21.318Z,1007.91
2019-01-05T00:17:21.279Z,1007.88
2019-01-05T00:18:21.268Z,1007.84
2019-01-05T00:19:21.266Z,1007.80
2019-01-05T00:20:21.267Z,1007.84
2019-01-05T00:21:21.238Z,1007.83
2019-01-05T00:22:21.224Z,1007.77
2019-01-05T00:23:21.214Z,1007.78
2019-01-05T00:24:21.206Z,1007.78
2019-01-05T00:25:21.231Z,1007.80
2019-01-05T00:26:21.179Z,1007.78
2019-01-05T00:27:21.171Z,1007.76
2019-01-05T00:28:21.181Z,1007.76
2019-01-05T00:29:21.147Z,1007.76
2019-01-05T00:30:21.136Z,1007.71
2019-01-05T00:31:21.130Z,1007.65
2019-01-05T00:32:21.129Z,1007.67
2019-01-05T00:33:21.133Z,1007.66
2019-01-05T00:34:21.092Z,1007.66
2019-01-05T00:35:21.083Z,1007.63
2019-01-05T00:36:21.097Z,1007.67
2019-01-05T00:37:21.063Z,1007.63
2019-01-05T00:38:21.080Z,1007.61
2019-01-05T00:39:21.057Z,1007.66
2019-01-05T00:40:21.026Z,1007.61
2019-01-05T00:41:21.047Z,1007.67
2019-01-05T00:42:21.003Z,1007.68
2019-01-05T00:43:20.992Z,1007.65
2019-01-05T00:44:20.995Z,1007.63
2019-01-05T00:45:20.970Z,1007.66
2019-01-05T00:46:20.993Z,1007.65
2019-01-05T00:47:20.947Z,1007.61
2019-01-05T00:48:20.937Z,1007.62
2019-01-05T00:49:20.927Z,1007.62
2019-01-05T00:50:20.923Z,1007.61
2019-01-05T00:51:20.929Z,1007.66
2019-01-05T00:52:20.894Z,1007.67
2019-01-05T00:53:20.905Z,1007.62
2019-01-05T00:54:20.872Z,1007.64
2019-01-05T00:55:20.883Z,1007.61
2019-01-05T00:56:20.856Z,1007.65
2019-01-05T00:57:20.840Z,1007.59
2019-01-05T00:58:20.855Z,1007.66
2019-01-05T00:59:20.815Z,1007.62
2019-01-05T01:00:20.804Z,1007.61
2019-01-05T01:01:20.794Z,1007.57
2019-01-05T01:02:20.792Z,1007.51
2019-01-05T01:03:20.831Z,1007.59
2019-01-05T01:04:20.762Z,1007.55
2019-01-05T01:05:20.753Z,1007.54
2019-01-05T01:06:20.742Z,1007.54
2019-01-05T01:07:20.728Z,1007.50
2019-01-05T01:08:20.741Z,1007.52
2019-01-05T01:09:20.732Z,1007.52
2019-01-05T01:10:20.700Z,1007.55
2019-01-05T01:11:20.684Z,1007.51
2019-01-05T01:12:20.692Z,1007.45
2019-01-05T01:13:20.688Z,1007.41
2019-01-05T01:14:20.650Z,1007.42
2019-01-05T01:15:20.651Z,1007.36
2019-01-05T01:16:20.639Z,1007.33
2019-01-05T01:17:20.636Z,1007.32
2019-01-05T01:18:20.630Z,1007.32
2019-01-05T01:19:20.594Z,1007.37
2019-01-05T01:20:20.584Z,1007.31
2019-01-05T01:21:20.572Z,1007.30
2019-01-05T01:22:20.594Z,1007.25
2019-01-05T01:23:20.551Z,1007.19
2019-01-05T01:24:20.540Z,1007.16
2019-01-05T01:25:20.531Z,1007.16
2019-01-05T01:26:20.518Z,1007.19
2019-01-05T01:27:20.532Z,1007.14
2019-01-05T01:28:20.520Z,1007.11
2019-01-05T01:29:20.487Z,1007.12
2019-01-05T01:30:20.477Z,1007.08
2019-01-05T01:31:20.461Z,1007.10
2019-01-05T01:32:20.473Z,1007.04
2019-01-05T01:33:20.441Z,1007.05
2019-01-05T01:34:20.471Z,1007.10
2019-01-05T01:35:20.418Z,1007.11
2019-01-05T01:36:20.427Z,1007.15
2019-01-05T01:37:20.397Z,1007.11
2019-01-05T01:38:20.384Z,1007.09
2019-01-05T01:39:20.377Z,1007.05
2019-01-05T01:40:20.382Z,1007.03
2019-01-05T01:41:20.376Z,1007.07
2019-01-05T01:42:20.344Z,1007.01
2019-01-05T01:43:20.330Z,1006.98
2019-01-05T01:44:20.321Z,1007.10
2019-01-05T01:45:20.308Z,1007.04
2019-01-05T01:46:20.327Z,1006.98
2019-01-05T01:47:20.309Z,1006.99
2019-01-05T01:48:20.283Z,1006.93
2019-01-05T01:49:20.263Z,1006.97
2019-01-05T01:50:20.283Z,1006.96
2019-01-05T01:51:20.243Z,1006.87
2019-01-05T01:52:20.235Z,1006.91
2019-01-05T01:53:20.220Z,1006.97
2019-01-05T01:54:20.212Z,1006.91
2019-01-05T01:55:20.226Z,1006.88
2019-01-05T01:56:20.186Z,1006.86
2019-01-05T01:57:20.175Z,1006.82
2019-01-05T01:58:20.181Z,1006.84
2019-01-05T01:59:20.153Z,1006.80
2019-01-05T02:00:20.163Z,1006.81
2019-01-05T02:01:20.132Z,1006.78
2019-01-05T02:02:20.142Z,1006.79
2019-01-05T02:03:20.111Z,1006.78
2019-01-05T02:04:20.109Z,1006.79
2019-01-05T02:05:20.089Z,1006.77
2019-01-05T02:06:20.076Z,1006.73
2019-01-05T02:07:20.100Z,1006.68
2019-01-05T02:08:20.054Z,1006.72
2019-01-05T02:09:20.042Z,1006.68
2019-01-05T02:10:20.045Z,1006.63
2019-01-05T02:11:20.023Z,1006.63
2019-01-05T02:12:20.041Z,1006.59
2019-01-05T02:13:20.014Z,1006.55
2019-01-05T02:14:19.992Z,1006.58
2019-01-05T02:15:20.066Z,1006.58
2019-01-05T02:16:19.972Z,1006.58
2019-01-05T02:17:19.993Z,1006.57
2019-01-05T02:18:19.950Z,1006.48
2019-01-05T02:19:19.936Z,1006.45
2019-01-05T02:20:19.924Z,1006.46
2019-01-05T02:21:19.922Z,1006.45
2019-01-05T02:22:19.929Z,1006.40
2019-01-05T02:23:19.888Z,1006.44
2019-01-05T02:24:19.888Z,1006.36
2019-01-05T02:25:19.867Z,1006.38
2019-01-05T02:26:19.887Z,1006.34
2019-01-05T02:27:19.863Z,1006.39
2019-01-05T02:28:19.832Z,1006.36
2019-01-05T02:29:19.824Z,1006.36
2019-01-05T02:30:19.812Z,1006.38
2019-01-05T02:31:19.825Z,1006.35
2019-01-05T02:32:19.793Z,1006.35
2019-01-05T02:33:19.795Z,1006.37
2019-01-05T02:34:19.773Z,1006.34
2019-01-05T02:35:19.796Z,1006.38
2019-01-05T02:36:19.788Z,1006.36
2019-01-05T02:37:19.737Z,1006.32
2019-01-05T02:38:19.731Z,1006.31
2019-01-05T02:39:19.723Z,1006.29
2019-01-05T02:40:19.710Z,1006.30
2019-01-05T02:41:19.718Z,1006.25
2019-01-05T02:42:19.690Z,1006.21
2019-01-05T02:43:19.760Z,1006.18
2019-01-05T02:44:19.666Z,1006.17
2019-01-05T02:45:19.658Z,1006.13
2019-01-05T02:46:19.639Z,1006.13
2019-01-05T02:47:19.660Z,1006.14
2019-01-05T02:48:19.618Z,1006.11
2019-01-05T02:49:19.646Z,1006.06
2019-01-05T02:50:19.603Z,1006.02
2019-01-05T02:51:19.612Z,1005.96
2019-01-05T02:52:19.602Z,1005.97
2019-01-05T02:53:19.559Z,1005.91
2019-01-05T02:54:19.580Z,1005.98
2019-01-05T02:55:19.575Z,1005.98
2019-01-05T02:56:19.537Z,1006.00
2019-01-05T02:57:19.528Z,1005.99
2019-01-05T02:58:19.558Z,1006.03
2019-01-05T02:59:19.503Z,1005.97
2019-01-05T03:00:19.499Z,1005.97
2019-01-05T03:01:19.484Z,1005.92
2019-01-05T03:02:19.461Z,1005.95
2019-01-05T03:03:19.497Z,1005.90
2019-01-05T03:04:19.448Z,1005.92
2019-01-05T03:05:19.429Z,1005.97
2019-01-05T03:06:19.458Z,1005.94
2019-01-05T03:07:19.420Z,1005.89
2019-01-05T03:08:19.419Z,1005.82
2019-01-05T03:09:19.412Z,1005.83
2019-01-05T03:10:19.425Z,1005.81
2019-01-05T03:11:19.411Z,1005.81
2019-01-05T03:12:19.353Z,1005.83
2019-01-05T03:13:19.371Z,1005.77
2019-01-05T03:14:19.353Z,1005.78
2019-01-05T03:15:19.357Z,1005.73
2019-01-05T03:16:19.306Z,1005.71
2019-01-05T03:17:19.326Z,1005.76
2019-01-05T03:18:19.314Z,1005.72
2019-01-05T03:19:19.283Z,1005.71
2019-01-05T03:20:19.259Z,1005.70
2019-01-05T03:21:19.252Z,1005.66
2019-01-05T03:22:19.258Z,1005.64
2019-01-05T03:23:19.260Z,1005.66
2019-01-05T03:24:19.219Z,1005.67
2019-01-05T03:25:19.206Z,1005.60
2019-01-05T03:26:19.197Z,1005.57
2019-01-05T03:27:19.186Z,1005.52
2019-01-05T03:28:19.235Z,1005.49
2019-01-05T03:29:19.196Z,1005.47
2019-01-05T03:30:19.151Z,1005.46
2019-01-05T03:31:19.150Z,1005.37
2019-01-05T03:32:19.191Z,1005.39
2019-01-05T03:33:19.121Z,1005.40
2019-01-05T03:34:19.139Z,1005.36
2019-01-05T03:35:19.157Z,1005.34
2019-01-05T03:36:19.083Z,1005.38
2019-01-05T03:37:19.078Z,1005.37
2019-01-05T03:38:19.062Z,1005.34
2019-01-05T03:39:19.100Z,1005.29
2019-01-05T03:40:19.040Z,1005.27
2019-01-05T03:41:19.034Z,1005.30
2019-01-05T03:42:19.020Z,1005.30
2019-01-05T03:43:19.036Z,1005.19
2019-01-05T03:44:19.000Z,1005.16
2019-01-05T03:45:19.017Z,1005.22
2019-01-05T03:46:18.982Z,1005.12
2019-01-05T03:47:18.983Z,1005.06
2019-01-05T03:48:18.974Z,1005.05
2019-01-05T03:49:18.952Z,1004.99
2019-01-05T03:50:18.928Z,1005.04
2019-01-05T03:51:18.936Z,1005.01
2019-01-05T03:52:18.930Z,1005.07
2019-01-05T03:53:18.904Z,1005.08
2019-01-05T03:54:18.927Z,1005.03
2019-01-05T03:55:18.890Z,1004.89
2019-01-05T03:56:18.918Z,1004.89
2019-01-05T03:57:18.862Z,1004.87
2019-01-05T03:58:18.843Z,1004.85
2019-01-05T03:59:18.881Z,1004.90
2019-01-05T04:00:18.830Z,1004.90
2019-01-05T04:01:18.811Z,1004.83
2019-01-05T04:02:18.802Z,1004.81
2019-01-05T04:03:18.809Z,1004.77
2019-01-05T04:04:18.836Z,1004.81
2019-01-05T04:05:18.763Z,1004.77
2019-01-05T04:06:18.752Z,1004.78
2019-01-05T04:07:18.788Z,1004.72
2019-01-05T04:08:18.737Z,1004.72
2019-01-05T04:09:18.781Z,1004.66
2019-01-05T04:10:18.716Z,1004.58
2019-01-05T04:11:18.703Z,1004.64
2019-01-05T04:12:18.694Z,1004.65
2019-01-05T04:13:18.676Z,1004.61
2019-01-05T04:14:18.759Z,1004.65
2019-01-05T04:15:18.656Z,1004.64
2019-01-05T04:16:18.671Z,1004.61
2019-01-05T04:17:18.631Z,1004.63
2019-01-05T04:18:18.634Z,1004.56
2019-01-05T04:19:18.623Z,1004.55
2019-01-05T04:20:18.628Z,1004.50
2019-01-05T04:21:18.594Z,1004.45
2019-01-05T04:22:18.613Z,1004.41
2019-01-05T04:23:18.569Z,1004.40
2019-01-05T04:24:18.570Z,1004.37
2019-01-05T04:25:18.568Z,1004.34
2019-01-05T04:26:18.568Z,1004.37
2019-01-05T04:27:18.563Z,1004.39
2019-01-05T04:28:18.524Z,1004.36
2019-01-05T04:29:18.510Z,1004.40
2019-01-05T04:30:18.510Z,1004.44
2019-01-05T04:31:18.488Z,1004.43
2019-01-05T04:32:18.509Z,1004.41
2019-01-05T04:33:18.474Z,1004.34
2019-01-05T04:34:18.456Z,1004.41
2019-01-05T04:35:18.447Z,1004.36
2019-01-05T04:36:18.457Z,1004.32
2019-01-05T04:37:18.410Z,1004.32
2019-01-05T04:38:18.455Z,1004.32
2019-01-05T04:39:18.390Z,1004.29
2019-01-05T04:40:18.385Z,1004.37
2019-01-05T04:41:18.363Z,1004.26
2019-01-05T04:42:18.358Z,1004.25
2019-01-05T04:43:18.373Z,1004.23
2019-01-05T04:44:18.342Z,1004.20
2019-01-05T04:45:18.320Z,1004.24
2019-01-05T04:46:18.333Z,1004.11
2019-01-05T04:47:18.306Z,1004.16
2019-01-05T04:48:18.298Z,1004.12
2019-01-05T04:49:18.275Z,1004.11
2019-01-05T04:50:18.263Z,1004.16
2019-01-05T04:51:18.283Z,1004.18
2019-01-05T04:52:18.247Z,1004.13
2019-01-05T04:53:18.259Z,1004.10
2019-01-05T04:54:18.254Z,1004.22
2019-01-05T04:55:18.239Z,1004.15
2019-01-05T04:56:18.211Z,1004.08
2019-01-05T04:57:18.196Z,1004.07
2019-01-05T04:58:18.218Z,1004.10
2019-01-05T04:59:18.176Z,1004.14
2019-01-05T05:00:18.189Z,1004.09
2019-01-05T05:01:18.157Z,1004.07
2019-01-05T05:02:18.135Z,1004.06
2019-01-05T05:03:18.157Z,1004.05
2019-01-05T05:04:18.123Z,1004.01
2019-01-05T05:05:18.096Z,1003.95
2019-01-05T05:06:18.091Z,1003.87
2019-01-05T05:07:18.101Z,1003.91
2019-01-05T05:08:18.076Z,1003.96
2019-01-05T05:09:18.053Z,1003.91
2019-01-05T05:10:18.078Z,1003.90
2019-01-05T05:11:18.040Z,1003.87
2019-01-05T05:12:18.023Z,1003.87
2019-01-05T05:13:18.010Z,1003.92
2019-01-05T05:14:17.997Z,1003.88
2019-01-05T05:15:18.024Z,1003.93
2019-01-05T05:16:17.978Z,1003.94
2019-01-05T05:17:17.975Z,1003.96
2019-01-05T05:18:17.960Z,1003.90
2019-01-05T05:19:17.948Z,1003.83
2019-01-05T05:20:17.960Z,1003.83
2019-01-05T05:21:17.941Z,1003.85
2019-01-05T05:22:17.941Z,1003.84
2019-01-05T05:23:17.928Z,1003.79
2019-01-05T05:24:17.888Z,1003.81
2019-01-05T05:25:17.946Z,1003.82
2019-01-05T05:26:17.890Z,1003.82
2019-01-05T05:27:17.855Z,1003.87
2019-01-05T05:28:17.878Z,1003.78
2019-01-05T05:29:17.850Z,1003.77
2019-01-05T05:30:17.836Z,1003.80
2019-01-05T05:31:17.816Z,1003.82
2019-01-05T05:32:17.838Z,1003.90
2019-01-05T05:33:17.827Z,1003.89
2019-01-05T05:34:17.815Z,1003.80
2019-01-05T05:35:17.770Z,1003.83
2019-01-05T05:36:17.792Z,1003.83
2019-01-05T05:37:17.747Z,1003.77
2019-01-05T05:38:17.733Z,1003.82
2019-01-05T05:39:17.753Z,1003.80
2019-01-05T05:40:17.735Z,1003.77
2019-01-05T05:41:17.698Z,1003.77
2019-01-05T05:42:17.691Z,1003.81
2019-01-05T05:43:17.731Z,1003.80
2019-01-05T05:44:17.666Z,1003.82
2019-01-05T05:45:17.661Z,1003.79
2019-01-05T05:46:17.706Z,1003.85
2019-01-05T05:47:17.634Z,1003.79
2019-01-05T05:48:17.627Z,1003.84
2019-01-05T05:49:17.612Z,1003.85
2019-01-05T05:50:17.623Z,1003.88
2019-01-05T05:51:17.629Z,1003.85
2019-01-05T05:52:17.586Z,1003.87
2019-01-05T05:53:17.574Z,1003.85
2019-01-05T05:54:17.558Z,1003.87
2019-01-05T05:55:17.611Z,1003.79
2019-01-05T05:56:17.572Z,1003.84
2019-01-05T05:57:17.522Z,1003.81
2019-01-05T05:58:17.509Z,1003.82
2019-01-05T05:59:17.505Z,1003.80
2019-01-05T06:00:17.491Z,1003.74
2019-01-05T06:01:17.521Z,1003.76
2019-01-05T06:02:17.504Z,1003.74
2019-01-05T06:03:17.458Z,1003.76
2019-01-05T06:04:17.475Z,1003.78
2019-01-05T06:05:17.441Z,1003.80
2019-01-05T06:06:17.447Z,1003.75
2019-01-05T06:07:17.445Z,1003.80
2019-01-05T06:08:17.459Z,1003.77
2019-01-05T06:09:17.413Z,1003.75
2019-01-05T06:10:17.395Z,1003.73
2019-01-05T06:11:17.369Z,1003.70
2019-01-05T06:12:17.355Z,1003.73
2019-01-05T06:13:17.372Z,1003.77
2019-01-05T06:14:17.389Z,1003.74
2019-01-05T06:15:17.331Z,1003.74
2019-01-05T06:16:17.340Z,1003.73
2019-01-05T06:17:17.303Z,1003.72
2019-01-05T06:18:17.344Z,1003.69
2019-01-05T06:19:17.283Z,1003.69
2019-01-05T06:20:17.275Z,1003.73
2019-01-05T06:21:17.264Z,1003.72
2019-01-05T06:22:17.268Z,1003.79
2019-01-05T06:23:17.260Z,1003.77
2019-01-05T06:24:17.225Z,1003.74
2019-01-05T06:25:17.219Z,1003.76
2019-01-05T06:26:17.210Z,1003.78
2019-01-05T06:27:17.221Z,1003.75
2019-01-05T06:28:17.189Z,1003.75
2019-01-05T06:29:17.182Z,1003.79
2019-01-05T06:30:17.156Z,1003.71
2019-01-05T06:31:17.158Z,1003.74
2019-01-05T06:32:17.167Z,1003.73
2019-01-05T06:33:17.136Z,1003.72
2019-01-05T06:34:20.558Z,1003.75
2019-01-05T06:35:17.103Z,1003.75
2019-01-05T06:36:17.099Z,1003.74
2019-01-05T06:37:17.104Z,1003.73
2019-01-05T06:38:17.082Z,1003.71
2019-01-05T06:39:17.072Z,1003.69
2019-01-05T06:40:17.048Z,1003.69
2019-01-05T06:41:17.041Z,1003.74
2019-01-05T06:42:17.049Z,1003.72
2019-01-05T06:43:17.030Z,1003.67
2019-01-05T06:44:17.032Z,1003.66
2019-01-05T06:45:16.989Z,1003.61
2019-01-05T06:46:17.354Z,1003.67
2019-01-05T06:47:16.999Z,1003.64
2019-01-05T06:48:16.958Z,1003.66
2019-01-05T06:49:16.953Z,1003.70
2019-01-05T06:50:16.936Z,1003.65
2019-01-05T06:51:16.955Z,1003.68
2019-01-05T06:52:16.946Z,1003.72
2019-01-05T06:53:16.934Z,1003.69
2019-01-05T06:54:16.890Z,1003.73
2019-01-05T06:55:16.881Z,1003.73
2019-01-05T06:56:16.868Z,1003.76
2019-01-05T06:57:16.860Z,1003.72
2019-01-05T06:58:16.894Z,1003.76
2019-01-05T06:59:16.838Z,1003.80
2019-01-05T07:00:16.828Z,1003.78
2019-01-05T07:01:16.827Z,1003.81
2019-01-05T07:02:16.802Z,1003.85
2019-01-05T07:03:16.821Z,1003.81
2019-01-05T07:04:16.862Z,1003.87
2019-01-05T07:05:16.774Z,1003.84
2019-01-05T07:06:16.758Z,1003.77
2019-01-05T07:07:16.746Z,1003.71
2019-01-05T07:08:16.962Z,1003.74
2019-01-05T07:09:16.763Z,1003.72
2019-01-05T07:10:16.726Z,1003.72
2019-01-05T07:11:16.705Z,1003.78
2019-01-05T07:12:16.692Z,1003.80
2019-01-05T07:13:16.685Z,1003.82
2019-01-05T07:14:16.705Z,1003.82
2019-01-05T07:15:16.661Z,1003.82
2019-01-05T07:16:16.671Z,1003.84
2019-01-05T07:17:16.646Z,1003.84
2019-01-05T07:18:16.628Z,1003.81
2019-01-05T07:19:16.641Z,1003.80
2019-01-05T07:20:16.602Z,1003.77
2019-01-05T07:21:16.595Z,1003.79
2019-01-05T07:22:16.584Z,1003.78
2019-01-05T07:23:16.582Z,1003.76
2019-01-05T07:24:16.597Z,1003.78
2019-01-05T07:25:16.547Z,1003.77
2019-01-05T07:26:16.537Z,1003.75
2019-01-05T07:27:16.525Z,1003.76
2019-01-05T07:28:16.514Z,1003.75
2019-01-05T07:29:16.541Z,1003.82
2019-01-05T07:30:16.492Z,1003.81
2019-01-05T07:31:16.486Z,1003.86
2019-01-05T07:32:16.470Z,1003.79
2019-01-05T07:33:16.487Z,1003.80
2019-01-05T07:34:16.462Z,1003.80
2019-01-05T07:35:16.442Z,1003.82
2019-01-05T07:36:16.434Z,1003.88
2019-01-05T07:37:16.416Z,1003.88
2019-01-05T07:38:16.420Z,1003.89
2019-01-05T07:39:16.393Z,1003.85
2019-01-05T07:40:16.411Z,1003.85
2019-01-05T07:41:16.376Z,1003.86
2019-01-05T07:42:16.409Z,1003.91
2019-01-05T07:43:16.349Z,1003.94
2019-01-05T07:44:16.338Z,1003.96
2019-01-05T07:45:16.327Z,1003.95
2019-01-05T07:46:16.319Z,1003.99
2019-01-05T07:47:16.334Z,1003.97
2019-01-05T07:48:16.300Z,1003.98
2019-01-05T07:49:16.320Z,1003.97
2019-01-05T07:50:16.277Z,1004.00
2019-01-05T07:51:16.261Z,1004.02
2019-01-05T07:52:16.283Z,1004.05
2019-01-05T07:53:16.240Z,1004.07
2019-01-05T07:54:16.229Z,1004.12
2019-01-05T07:55:16.229Z,1004.09
2019-01-05T07:56:16.237Z,1004.11
2019-01-05T07:57:16.195Z,1004.15
2019-01-05T07:58:16.210Z,1004.17
2019-01-05T07:59:16.171Z,1004.19
2019-01-05T08:00:16.168Z,1004.20
2019-01-05T08:01:16.580Z,1004.18
2019-01-05T08:02:16.166Z,1004.20
2019-01-05T08:03:16.131Z,1004.28
2019-01-05T08:04:16.119Z,1004.20
2019-01-05T08:05:16.141Z,1004.18
2019-01-05T08:06:16.098Z,1004.28
2019-01-05T08:07:16.092Z,1004.29
2019-01-05T08:08:16.075Z,1004.30
2019-01-05T08:09:16.089Z,1004.27
2019-01-05T08:10:16.083Z,1004.28
2019-01-05T08:11:16.044Z,1004.32
2019-01-05T08:12:16.037Z,1004.32
2019-01-05T08:13:16.045Z,1004.36
2019-01-05T08:14:16.052Z,1004.40
2019-01-05T08:15:16.033Z,1004.42
2019-01-05T08:16:15.990Z,1004.38
2019-01-05T08:17:16.014Z,1004.42
2019-01-05T08:18:15.993Z,1004.40
2019-01-05T08:19:15.982Z,1004.41
2019-01-05T08:20:15.960Z,1004.41
2019-01-05T08:21:15.990Z,1004.41
2019-01-05T08:22:15.923Z,1004.40
2019-01-05T08:23:15.916Z,1004.35
2019-01-05T08:24:15.922Z,1004.33
2019-01-05T08:25:15.890Z,1004.34
2019-01-05T08:26:15.902Z,1004.35
2019-01-05T08:27:15.904Z,1004.34
2019-01-05T08:28:15.886Z,1004.33
2019-01-05T08:29:15.852Z,1004.33
2019-01-05T08:30:15.836Z,1004.36
2019-01-05T08:31:15.839Z,1004.33
2019-01-05T08:32:15.816Z,1004.38
2019-01-05T08:33:15.825Z,1004.38
2019-01-05T08:34:15.933Z,1004.38
2019-01-05T08:35:15.780Z,1004.41
2019-01-05T08:36:15.772Z,1004.39
2019-01-05T08:37:15.854Z,1004.44
2019-01-05T08:38:15.770Z,1004.38
2019-01-05T08:39:15.771Z,1004.35
2019-01-05T08:40:15.734Z,1004.40
2019-01-05T08:41:15.720Z,1004.39
2019-01-05T08:42:15.709Z,1004.37
2019-01-05T08:43:15.712Z,1004.44
2019-01-05T08:44:15.681Z,1004.39
2019-01-05T08:45:15.665Z,1004.43
2019-01-05T08:46:15.653Z,1004.39
2019-01-05T08:47:15.677Z,1004.40
2019-01-05T08:48:15.664Z,1004.42
2019-01-05T08:49:15.620Z,1004.46
2019-01-05T08:50:15.611Z,1004.46
2019-01-05T08:51:15.635Z,1004.46
2019-01-05T08:52:15.591Z,1004.48
2019-01-05T08:53:15.586Z,1004.50
2019-01-05T08:54:15.586Z,1004.49
2019-01-05T08:55:16.330Z,1004.51
2019-01-05T08:56:15.575Z,1004.51
2019-01-05T08:57:15.540Z,1004.52
2019-01-05T08:58:15.521Z,1004.47
2019-01-05T08:59:15.511Z,1004.51
2019-01-05T09:00:15.526Z,1004.56
2019-01-05T09:01:15.501Z,1004.51
2019-01-05T09:02:15.524Z,1004.59
2019-01-05T09:03:15.471Z,1004.57
2019-01-05T09:04:15.464Z,1004.49
2019-01-05T09:05:15.444Z,1004.60
2019-01-05T09:06:15.448Z,1004.56
2019-01-05T09:07:15.452Z,1004.58
2019-01-05T09:08:15.410Z,1004.53
2019-01-05T09:09:15.428Z,1004.55
2019-01-05T09:10:15.392Z,1004.58
2019-01-05T09:11:15.413Z,1004.59
2019-01-05T09:12:15.416Z,1004.54
2019-01-05T09:13:15.364Z,1004.56
2019-01-05T09:14:15.347Z,1004.57
2019-01-05T09:15:15.331Z,1004.52
2019-01-05T09:16:15.382Z,1004.52
2019-01-05T09:17:15.312Z,1004.52
2019-01-05T09:18:15.333Z,1004.56
2019-01-05T09:19:15.287Z,1004.50
2019-01-05T09:20:15.288Z,1004.50
2019-01-05T09:21:15.278Z,1004.49
2019-01-05T09:22:15.286Z,1004.49
2019-01-05T09:23:15.253Z,1004.53
2019-01-05T09:24:15.243Z,1004.50
2019-01-05T09:25:15.221Z,1004.51
2019-01-05T09:26:15.210Z,1004.47
2019-01-05T09:27:20.605Z,1004.51
2019-01-05T09:28:16.192Z,1004.54
2019-01-05T09:29:15.180Z,1004.55
2019-01-05T09:30:15.167Z,1004.58
2019-01-05T09:31:15.167Z,1004.59
2019-01-05T09:32:15.176Z,1004.59
2019-01-05T09:33:15.159Z,1004.56
2019-01-05T09:34:15.125Z,1004.59
2019-01-05T09:35:15.147Z,1004.61
2019-01-05T09:36:15.102Z,1004.59
2019-01-05T09:37:15.089Z,1004.57
2019-01-05T09:38:15.079Z,1004.61
2019-01-05T09:39:15.107Z,1004.63
2019-01-05T09:40:15.055Z,1004.61
2019-01-05T09:41:15.081Z,1004.57
2019-01-05T09:42:15.035Z,1004.61
2019-01-05T09:43:15.025Z,1004.64
2019-01-05T09:44:15.011Z,1004.63
2019-01-05T09:45:15.009Z,1004.62
2019-01-05T09:46:15.014Z,1004.65
2019-01-05T09:47:14.983Z,1004.66
2019-01-05T09:48:14.971Z,1004.62
2019-01-05T09:49:14.999Z,1004.61
2019-01-05T09:50:14.948Z,1004.62
2019-01-05T09:51:14.974Z,1004.63
2019-01-05T09:52:14.925Z,1004.59
2019-01-05T09:53:14.916Z,1004.57
2019-01-05T09:54:14.924Z,1004.58
2019-01-05T09:55:14.894Z,1004.59
2019-01-05T09:56:14.881Z,1004.53
2019-01-05T09:57:14.875Z,1004.54
2019-01-05T09:58:14.899Z,1004.54
2019-01-05T09:59:14.851Z,1004.56
2019-01-05T10:00:14.835Z,1004.50
2019-01-05T10:01:14.824Z,1004.48
2019-01-05T10:02:14.813Z,1004.47
2019-01-05T10:03:14.837Z,1004.51
2019-01-05T10:04:14.813Z,1004.53
2019-01-05T10:05:14.805Z,1004.51
2019-01-05T10:06:14.769Z,1004.52
2019-01-05T10:07:14.759Z,1004.50
2019-01-05T10:08:14.777Z,1004.51
2019-01-05T10:09:14.741Z,1004.52
2019-01-05T10:10:14.755Z,1004.51
2019-01-05T10:11:14.733Z,1004.45
2019-01-05T10:12:14.709Z,1004.52
2019-01-05T10:13:14.696Z,1004.53
2019-01-05T10:14:14.714Z,1004.55
2019-01-05T10:15:14.672Z,1004.54
2019-01-05T10:16:14.666Z,1004.54
2019-01-05T10:17:14.647Z,1004.57
2019-01-05T10:18:14.639Z,1004.51
2019-01-05T10:19:14.657Z,1004.54
2019-01-05T10:20:14.614Z,1004.55
2019-01-05T10:21:14.607Z,1004.52
2019-01-05T10:22:14.615Z,1004.53
2019-01-05T10:23:14.581Z,1004.50
2019-01-05T10:24:14.597Z,1004.53
2019-01-05T10:25:14.588Z,1004.53
2019-01-05T10:26:14.549Z,1004.52
2019-01-05T10:27:14.539Z,1004.53
2019-01-05T10:28:14.538Z,1004.53
2019-01-05T10:29:14.587Z,1004.53
2019-01-05T10:30:14.537Z,1004.58
2019-01-05T10:31:14.495Z,1004.61
2019-01-05T10:32:14.487Z,1004.61
2019-01-05T10:33:14.479Z,1004.54
2019-01-05T10:34:14.491Z,1004.54
2019-01-05T10:35:14.523Z,1004.54
2019-01-05T10:36:14.440Z,1004.55
2019-01-05T10:37:14.426Z,1004.60
2019-01-05T10:38:14.445Z,1004.53
2019-01-05T10:39:14.406Z,1004.52
2019-01-05T10:40:14.394Z,1004.52
2019-01-05T10:41:14.410Z,1004.54
2019-01-05T10:42:14.389Z,1004.52
2019-01-05T10:43:14.360Z,1004.54
2019-01-05T10:44:14.349Z,1004.52
2019-01-05T10:45:14.337Z,1004.53
2019-01-05T10:46:14.327Z,1004.53
2019-01-05T10:47:14.372Z,1004.54
2019-01-05T10:48:14.316Z,1004.54
2019-01-05T10:49:14.295Z,1004.52
2019-01-05T10:50:14.286Z,1004.53
2019-01-05T10:51:14.275Z,1004.48
2019-01-05T10:52:14.289Z,1004.49
2019-01-05T10:53:14.250Z,1004.46
2019-01-05T10:54:14.249Z,1004.46
2019-01-05T10:55:14.228Z,1004.49
2019-01-05T10:56:14.216Z,1004.47
2019-01-05T10:57:14.229Z,1004.48
2019-01-05T10:58:14.200Z,1004.51
2019-01-05T10:59:14.184Z,1004.47
2019-01-05T11:00:14.183Z,1004.47
2019-01-05T11:01:14.161Z,1004.49
2019-01-05T11:02:14.177Z,1004.51
2019-01-05T11:03:14.140Z,1004.47
2019-01-05T11:04:14.166Z,1004.48
2019-01-05T11:05:14.117Z,1004.50
2019-01-05T11:06:14.115Z,1004.48
2019-01-05T11:07:14.129Z,1004.49
2019-01-05T11:08:14.125Z,1004.46
2019-01-05T11:09:14.077Z,1004.43
2019-01-05T11:10:14.063Z,1004.42
2019-01-05T11:11:14.054Z,1004.44
2019-01-05T11:12:14.039Z,1004.46
2019-01-05T11:13:14.051Z,1004.47
2019-01-05T11:14:14.022Z,1004.45
2019-01-05T11:15:14.009Z,1004.47
2019-01-05T11:16:14.003Z,1004.48
2019-01-05T11:17:13.997Z,1004.43
2019-01-05T11:18:14.093Z,1004.47
2019-01-05T11:19:13.973Z,1004.48
2019-01-05T11:20:13.957Z,1004.48
2019-01-05T11:21:13.975Z,1004.51
2019-01-05T11:22:13.935Z,1004.52
2019-01-05T11:23:13.950Z,1004.53
2019-01-05T11:24:13.908Z,1004.50
2019-01-05T11:25:13.895Z,1004.47
2019-01-05T11:26:13.898Z,1004.47
2019-01-05T11:27:13.878Z,1004.49
2019-01-05T11:28:13.903Z,1004.51
2019-01-05T11:29:13.851Z,1004.54
2019-01-05T11:30:13.840Z,1004.52
2019-01-05T11:31:13.835Z,1004.51
2019-01-05T11:32:13.823Z,1004.51
2019-01-05T11:33:13.845Z,1004.51
2019-01-05T11:34:13.806Z,1004.51
2019-01-05T11:35:13.801Z,1004.48
2019-01-05T11:36:13.780Z,1004.49
2019-01-05T11:37:13.763Z,1004.56
2019-01-05T11:38:13.777Z,1004.49
2019-01-05T11:39:13.745Z,1004.51
2019-01-05T11:40:13.729Z,1004.52
2019-01-05T11:41:13.721Z,1004.52
2019-01-05T11:42:13.724Z,1004.47
2019-01-05T11:43:13.758Z,1004.47
2019-01-05T11:44:13.697Z,1004.44
2019-01-05T11:45:13.688Z,1004.48
2019-01-05T11:46:13.664Z,1004.39
2019-01-05T11:47:13.666Z,1004.39
2019-01-05T11:48:13.678Z,1004.39
2019-01-05T11:49:13.641Z,1004.42
2019-01-05T11:50:13.639Z,1004.37
2019-01-05T11:51:13.618Z,1004.41
2019-01-05T11:52:13.632Z,1004.37
2019-01-05T11:53:13.598Z,1004.36
2019-01-05T11:54:13.602Z,1004.36
2019-01-05T11:55:13.589Z,1004.37
2019-01-05T11:56:13.582Z,1004.37
2019-01-05T11:57:13.549Z,1004.36
2019-01-05T11:58:13.575Z,1004.36
2019-01-05T11:59:13.555Z,1004.42
2019-01-05T12:00:13.510Z,1004.39
2019-01-05T12:01:13.535Z,1004.45
2019-01-05T12:02:19.515Z,1004.36
2019-01-05T12:03:14.515Z,1004.42
2019-01-05T12:04:13.466Z,1004.44
2019-01-05T12:05:13.495Z,1004.47